Accueil
METAR-TAF:

METAR-TAF

Aéroports :

Aéroport international Roi-Abdelaziz

Djeddah, Arabie saoudite

latitude: 21-42N, longitude: 039-11E, altitude: 15 m

Observation

Le bulletin a été fait il y a 37 minutes, à 22:00 UTC
Vent calme
Température 27°C
Humidité 54%
Pression 1012 hPa
Visibilité 10 km ou plus
pas de nuages en-dessous de 1500 mètres et pas de cumulonimbus.

METAR: OEJN 122200Z 00000KT CAVOK 27/17 Q1012 NOSIG

Heure: 01:37 (22:37 UTC)

Prévision

Le bulletin a été fait il y a 5 heures et 37 minutes, à 17:00 UTC
Prévision valable du 12 à 18 UTC au 13 à 24 UTC
Vent 8 kt de nord/nord-est
Visibilité 10 km ou plus
Quelques nuages à une hauteur de 4000 ft
Evoluant progressivement
du 13 à 08 UTC au 13 à 10 UTC
Vent 14 kt de nord/nord-ouest

TAF: OEJN 121700Z 1218/1324 02008KT 9999 FEW040 BECMG 1308/1310 33014KT

Observations et prévisions météorologiques de plus de 4000 aéroports (messages METAR et TAF).

Les stations disponibles sont représentées par des disques jaunes et rouges sur la carte.

Passer la souris dessus pour voir le nom de la station.

Cliquer dessus pour voir les observations et prévisions météorologiques.

Pour changer de carte: cliquez sur les boutons verts avec une croix noire pour zoomer, sur le bouton vert avec un tiret pour effectuer un zoom arrière, ou sur les flèches vertes pour les cartes adjacentes.


METAR-TAF: